Stampede Pass, Washington
Current Conditions -  °F | °C
As of 6:53 AM on Monday 22 Dec 2014 (Local Time) from KELN Reporting Station
Clear Clear  
Wind Chill: 33°   Ceiling: Unl
Heat Index: 42°   Visibility: 10mi
Dew Point: 33°   Wind: 22mph
Humidity: 70%   Direction: 310°NW
Pressure: 30.15"   Gusts: NA
Location:  47.28°N, 121.33°W
Report Text: KELN 221453Z AUTO 31019KT 10SM CLR 06/01 A3015 RMK AO2 PK WND 32026/1446 SLP220 T00560006 53018
Loading
Personal Weather Stations






























Interactive Weather Map New forecast layout! Learn more

10-Day Weather Forecast

Advertisements
Track Severe Weather on mobile